Time;durP1;ratioP1;P1;durP2;ratioP2;P2;SDS_P1;SDS_P2;PMS_P1;PMS_P2;Temp;Humidity;BMP_temperature;BMP_pressure;BME280_temperature;BME280_humidity;BME280_pressure;Samples;Min_cycle;Max_cycle;Signal;HPM_P1;HPM_P2
2023/06/17 00:00:28;;;;;;;9.88;5.90;;;16.10;99.90;;;;;;5062424;28;20539;-81
2023/06/17 00:02:54;;;;;;;10.90;6.28;;;16.10;99.90;;;;;;5081328;28;20687;-81
2023/06/17 00:05:21;;;;;;;7.53;6.28;;;16.10;99.90;;;;;;5062113;28;20221;-81
2023/06/17 00:07:46;;;;;;;7.38;6.05;;;15.90;99.90;;;;;;5061993;28;20204;-81
2023/06/17 00:10:12;;;;;;;9.70;6.35;;;15.70;99.90;;;;;;5079737;28;20577;-81
2023/06/17 00:12:38;;;;;;;12.80;6.43;;;15.50;99.90;;;;;;5062296;28;20178;-81
2023/06/17 00:15:05;;;;;;;8.57;6.03;;;15.40;99.90;;;;;;5062204;28;20651;-81
2023/06/17 00:17:32;;;;;;;9.30;6.05;;;15.30;99.90;;;;;;5079906;28;20173;-81
2023/06/17 00:20:08;;;;;;;7.78;6.15;;;15.20;99.90;;;;;;5080371;28;20174;-81
2023/06/17 00:22:35;;;;;;;8.90;6.00;;;15.10;99.90;;;;;;5062260;28;20657;-80
2023/06/17 00:25:02;;;;;;;8.55;6.22;;;15.10;99.90;;;;;;5079996;28;20280;-80
2023/06/17 00:27:28;;;;;;;8.27;6.10;;;15.20;99.90;;;;;;5080165;28;20169;-81
2023/06/17 00:29:53;;;;;;;9.27;6.65;;;15.20;99.90;;;;;;5062165;28;20177;-80
2023/06/17 00:32:19;;;;;;;8.95;6.15;;;15.10;99.90;;;;;;5061954;28;20178;-81
2023/06/17 00:34:45;;;;;;;8.82;5.72;;;15.00;99.90;;;;;;5079369;28;20205;-81
2023/06/17 00:37:11;;;;;;;7.97;5.95;;;14.90;99.90;;;;;;5079499;28;20193;-81
2023/06/17 00:39:37;;;;;;;12.02;7.05;;;14.80;99.90;;;;;;5061799;28;20645;-80
2023/06/17 00:42:03;;;;;;;8.75;6.85;;;14.70;99.90;;;;;;5080391;28;20170;-81
2023/06/17 00:44:28;;;;;;;8.85;6.30;;;14.70;99.90;;;;;;5079769;28;20273;-80
2023/06/17 00:46:55;;;;;;;10.82;6.72;;;14.60;99.90;;;;;;5062188;28;20173;-80
2023/06/17 00:49:33;;;;;;;13.52;6.53;;;14.50;99.90;;;;;;5080402;28;20170;-81
2023/06/17 00:52:04;;;;;;;8.48;6.05;;;14.60;99.90;;;;;;5062720;28;20646;-81
2023/06/17 00:54:31;;;;;;;7.82;6.15;;;14.60;99.90;;;;;;5062177;28;20205;-80
2023/06/17 00:56:59;;;;;;;7.95;6.40;;;14.60;99.90;;;;;;5080781;28;20181;-81
2023/06/17 00:59:25;;;;;;;9.50;6.75;;;14.60;99.90;;;;;;5080036;28;20181;-81
2023/06/17 01:01:51;;;;;;;9.25;6.25;;;14.50;99.90;;;;;;5062972;28;20184;-80
2023/06/17 01:04:16;;;;;;;7.85;6.60;;;14.40;99.90;;;;;;5079890;28;20298;-81
2023/06/17 01:06:59;;;;;;;9.07;6.50;;;14.30;99.90;;;;;;5062643;28;20186;-81
2023/06/17 01:09:32;;;;;;;8.40;6.07;;;14.20;99.90;;;;;;5062202;28;20173;-80
2023/06/17 01:11:59;;;;;;;7.70;6.30;;;14.30;99.90;;;;;;5062572;28;20173;-81
2023/06/17 01:14:27;;;;;;;8.57;6.75;;;14.40;99.90;;;;;;5080681;28;20280;-81
2023/06/17 01:16:54;;;;;;;7.53;6.25;;;14.40;99.90;;;;;;5062441;28;20174;-81
2023/06/17 01:19:23;;;;;;;9.23;6.40;;;14.40;99.90;;;;;;5080015;28;20170;-81
2023/06/17 01:21:54;;;;;;;9.77;6.93;;;14.40;99.90;;;;;;5080715;28;20257;-80
2023/06/17 01:24:28;;;;;;;8.40;6.30;;;14.50;99.90;;;;;;5061976;28;20213;-81
2023/06/17 01:26:59;;;;;;;6.75;5.97;;;14.50;99.90;;;;;;5080566;28;20172;-80
2023/06/17 01:29:29;;;;;;;7.97;6.20;;;14.50;99.90;;;;;;5062186;28;20170;-81
2023/06/17 01:31:58;;;;;;;8.32;6.35;;;14.40;99.90;;;;;;5079969;28;20172;-81
2023/06/17 01:34:53;;;;;;;9.98;6.28;;;14.30;99.90;;;;;;5061571;28;20197;-81
2023/06/17 01:37:29;;;;;;;9.15;6.90;;;14.20;99.90;;;;;;5068570;28;20692;-81
2023/06/17 01:39:57;;;;;;;10.25;6.25;;;14.00;99.90;;;;;;5062088;28;20621;-81
2023/06/17 01:42:32;;;;;;;8.32;6.60;;;14.00;99.90;;;;;;5062311;28;20557;-80
2023/06/17 01:45:05;;;;;;;10.07;6.38;;;13.90;99.90;;;;;;5080955;28;20201;-80
2023/06/17 01:47:31;;;;;;;11.60;6.90;;;13.90;99.90;;;;;;5063364;28;20173;-81
2023/06/17 01:50:02;;;;;;;9.70;6.75;;;13.90;99.90;;;;;;5064244;28;20204;-80
2023/06/17 01:52:28;;;;;;;8.27;6.38;;;13.80;99.90;;;;;;5063807;28;20208;-80
2023/06/17 01:54:54;;;;;;;8.90;6.88;;;13.70;99.90;;;;;;5064209;28;20201;-80
2023/06/17 01:57:20;;;;;;;10.60;6.28;;;13.80;99.90;;;;;;5076855;28;20246;-79
2023/06/17 01:59:46;;;;;;;7.60;6.32;;;13.80;99.90;;;;;;5073235;28;20190;-79
2023/06/17 02:02:11;;;;;;;10.25;6.60;;;13.80;99.90;;;;;;5081167;28;20217;-80
2023/06/17 02:04:37;;;;;;;11.68;7.07;;;13.60;99.90;;;;;;5083844;28;20221;-80
2023/06/17 02:07:03;;;;;;;9.50;6.30;;;13.60;99.90;;;;;;5065958;28;20594;-81
2023/06/17 02:09:29;;;;;;;8.25;6.47;;;13.60;99.90;;;;;;5084205;28;20197;-80
2023/06/17 02:11:55;;;;;;;8.38;7.13;;;13.60;99.90;;;;;;5065818;28;20180;-80
2023/06/17 02:14:21;;;;;;;11.50;7.00;;;13.70;99.90;;;;;;5065698;28;20198;-81
2023/06/17 02:16:47;;;;;;;9.25;7.30;;;13.70;99.90;;;;;;5082996;28;20178;-80
2023/06/17 02:19:15;;;;;;;10.57;7.85;;;13.70;99.90;;;;;;5065278;28;20213;-80
2023/06/17 02:21:42;;;;;;;10.35;6.93;;;13.60;99.90;;;;;;5065414;28;20212;-81
2023/06/17 02:24:09;;;;;;;12.07;8.10;;;13.40;99.90;;;;;;5083250;28;20250;-80
2023/06/17 02:26:34;;;;;;;10.07;7.85;;;13.40;99.90;;;;;;5083406;28;20169;-80
2023/06/17 02:29:00;;;;;;;8.80;7.45;;;13.40;99.90;;;;;;5064586;28;20169;-81
2023/06/17 02:31:27;;;;;;;10.60;6.95;;;13.50;99.90;;;;;;5065091;28;20178;-80
2023/06/17 02:33:54;;;;;;;9.57;7.57;;;13.40;99.90;;;;;;5083111;28;20192;-80
2023/06/17 02:36:19;;;;;;;12.73;8.27;;;13.40;99.90;;;;;;5082677;28;20189;-80
2023/06/17 02:38:45;;;;;;;11.50;7.70;;;13.40;99.90;;;;;;5083435;28;20173;-80
2023/06/17 02:41:11;;;;;;;10.38;7.53;;;13.20;99.90;;;;;;5064355;28;20177;-80
2023/06/17 02:43:37;;;;;;;9.27;6.80;;;13.00;99.90;;;;;;5083139;28;20210;-81
2023/06/17 02:46:03;;;;;;;12.60;7.05;;;12.80;99.90;;;;;;5082033;28;20194;-81
2023/06/17 02:48:28;;;;;;;9.57;7.28;;;12.60;99.90;;;;;;5082836;28;20548;-80
2023/06/17 02:50:54;;;;;;;9.05;6.53;;;12.50;99.90;;;;;;5082653;28;20181;-81
2023/06/17 02:53:21;;;;;;;8.07;6.93;;;12.50;99.90;;;;;;5082442;28;20163;-80
2023/06/17 02:55:48;;;;;;;10.15;7.18;;;12.40;99.90;;;;;;5063899;28;20286;-80
2023/06/17 02:58:15;;;;;;;8.98;7.70;;;12.30;99.90;;;;;;5064519;28;20184;-80
2023/06/17 03:00:45;;;;;;;8.80;7.30;;;12.30;99.90;;;;;;5081717;28;20227;-80
2023/06/17 03:03:11;;;;;;;8.63;6.85;;;12.30;99.90;;;;;;5064397;28;20249;-80
2023/06/17 03:05:41;;;;;;;9.90;7.82;;;12.40;99.90;;;;;;5064267;28;20566;-80
2023/06/17 03:08:07;;;;;;;15.43;7.45;;;12.40;99.90;;;;;;5065005;28;20162;-81
2023/06/17 03:10:34;;;;;;;9.77;7.07;;;12.40;99.90;;;;;;5083342;28;20646;-80
2023/06/17 03:13:00;;;;;;;10.38;7.53;;;12.50;99.90;;;;;;5084341;28;20170;-80
2023/06/17 03:15:26;;;;;;;8.50;6.95;;;12.50;99.90;;;;;;5065050;28;20563;-80
2023/06/17 03:17:52;;;;;;;10.02;7.10;;;12.60;99.90;;;;;;5081952;28;20197;-81
2023/06/17 03:20:18;;;;;;;11.75;7.85;;;12.70;99.90;;;;;;5082235;28;20174;-81
2023/06/17 03:22:44;;;;;;;11.38;7.95;;;12.70;99.90;;;;;;5064859;28;20170;-80
2023/06/17 03:25:11;;;;;;;9.85;7.72;;;12.70;99.90;;;;;;5082934;28;20209;-79
2023/06/17 03:27:37;;;;;;;9.77;7.30;;;12.80;99.90;;;;;;5065012;28;20630;-80
2023/06/17 03:30:03;;;;;;;9.75;7.78;;;12.90;99.90;;;;;;5065254;28;20214;-80
2023/06/17 03:32:29;;;;;;;12.00;8.52;;;12.80;99.90;;;;;;5064800;28;20571;-80
2023/06/17 03:34:55;;;;;;;10.80;8.23;;;12.70;99.90;;;;;;5082386;28;20210;-79
2023/06/17 03:37:22;;;;;;;12.23;7.97;;;12.50;99.90;;;;;;5078666;28;20185;-80
2023/06/17 03:39:48;;;;;;;9.70;7.20;;;12.40;99.90;;;;;;5078272;28;20200;-80
2023/06/17 03:42:17;;;;;;;10.30;8.05;;;12.40;99.90;;;;;;5060469;28;20550;-79
2023/06/17 03:44:43;;;;;;;11.57;8.15;;;12.40;99.90;;;;;;5060566;28;20266;-80
2023/06/17 03:47:09;;;;;;;11.18;8.55;;;12.20;99.90;;;;;;5063197;28;20260;-79
2023/06/17 03:49:35;;;;;;;9.57;7.53;;;12.10;99.90;;;;;;5058370;28;20618;-80
2023/06/17 03:52:00;;;;;;;12.43;8.32;;;12.00;99.90;;;;;;5058620;28;20251;-80
2023/06/17 03:54:26;;;;;;;9.45;7.72;;;12.00;99.90;;;;;;5058468;28;20669;-80
2023/06/17 03:56:52;;;;;;;12.75;7.75;;;11.90;99.90;;;;;;5058846;28;20194;-80
2023/06/17 03:59:17;;;;;;;11.10;7.90;;;12.00;99.90;;;;;;5077095;28;20174;-80
2023/06/17 04:01:43;;;;;;;10.07;7.90;;;12.00;99.90;;;;;;5059339;28;20186;-79
2023/06/17 04:04:09;;;;;;;11.20;8.50;;;12.20;99.90;;;;;;5060178;28;20197;-80
2023/06/17 04:06:35;;;;;;;10.90;8.48;;;12.20;99.90;;;;;;5078573;28;20198;-81
2023/06/17 04:09:03;;;;;;;12.43;8.93;;;12.30;99.90;;;;;;5078600;28;20177;-81
2023/06/17 04:11:32;;;;;;;12.23;8.15;;;12.40;99.90;;;;;;5060212;28;20205;-81
2023/06/17 04:14:01;;;;;;;11.23;8.35;;;12.40;99.90;;;;;;5078891;28;20176;-81
2023/06/17 04:16:30;;;;;;;10.75;7.57;;;12.40;99.90;;;;;;5060993;28;20181;-81
2023/06/17 04:18:57;;;;;;;10.93;8.15;;;12.30;99.90;;;;;;5060433;28;20257;-81
2023/06/17 04:21:23;;;;;;;10.40;8.02;;;12.20;99.90;;;;;;5060632;28;20193;-81
2023/06/17 04:23:48;;;;;;;10.50;8.02;;;12.20;99.90;;;;;;5060392;28;20569;-81
2023/06/17 04:26:15;;;;;;;12.90;8.70;;;12.20;99.90;;;;;;5059366;28;20561;-81
2023/06/17 04:28:40;;;;;;;12.38;8.32;;;12.20;99.90;;;;;;5061567;28;20170;-81
2023/06/17 04:31:10;;;;;;;9.48;7.88;;;12.30;99.90;;;;;;5078658;28;20190;-81
2023/06/17 04:33:37;;;;;;;12.15;8.75;;;12.30;99.90;;;;;;5060514;28;20181;-81
2023/06/17 04:36:08;;;;;;;10.40;8.40;;;12.20;99.90;;;;;;5060301;28;20262;-81
2023/06/17 04:38:36;;;;;;;11.90;8.23;;;12.20;99.90;;;;;;5078349;28;20226;-80
2023/06/17 04:41:04;;;;;;;10.27;8.25;;;12.20;99.90;;;;;;5078379;28;20197;-81
2023/06/17 04:43:32;;;;;;;12.05;8.57;;;12.20;99.90;;;;;;5060000;28;20201;-81
2023/06/17 04:45:59;;;;;;;9.63;8.27;;;12.30;99.90;;;;;;5078759;28;20228;-81
2023/06/17 04:48:25;;;;;;;12.00;8.10;;;12.40;99.90;;;;;;5078364;28;20524;-81
2023/06/17 04:50:52;;;;;;;11.05;8.40;;;12.40;99.90;;;;;;5078078;28;20646;-81
2023/06/17 04:53:18;;;;;;;13.18;9.35;;;12.50;99.90;;;;;;5078523;28;20260;-81
2023/06/17 04:55:43;;;;;;;11.90;8.60;;;12.60;99.90;;;;;;5059432;28;20204;-81
2023/06/17 04:58:09;;;;;;;12.45;9.27;;;12.70;99.90;;;;;;5059612;28;20178;-81
2023/06/17 05:00:35;;;;;;;13.27;9.50;;;12.80;99.90;;;;;;5059835;28;20542;-81
2023/06/17 05:03:01;;;;;;;11.97;8.50;;;12.80;99.90;;;;;;5078122;28;20165;-82
2023/06/17 05:05:26;;;;;;;13.55;9.23;;;12.90;99.90;;;;;;5060483;28;20242;-81
2023/06/17 05:07:52;;;;;;;13.93;9.38;;;13.00;99.90;;;;;;5060272;28;20668;-81
2023/06/17 05:10:18;;;;;;;14.30;9.75;;;13.10;99.90;;;;;;5078429;28;20197;-81
2023/06/17 05:12:44;;;;;;;11.70;9.32;;;13.20;99.90;;;;;;5060526;28;20207;-81
2023/06/17 05:15:10;;;;;;;11.25;9.02;;;13.30;99.90;;;;;;5060229;28;20197;-81
2023/06/17 05:17:36;;;;;;;13.13;9.52;;;13.40;99.90;;;;;;5078517;28;20166;-81
2023/06/17 05:20:02;;;;;;;12.23;8.70;;;13.50;99.90;;;;;;5060038;28;20645;-81
2023/06/17 05:22:28;;;;;;;12.43;8.57;;;13.50;99.90;;;;;;5077473;28;20200;-81
2023/06/17 05:24:53;;;;;;;13.13;9.18;;;13.60;99.90;;;;;;5059674;28;20292;-81
2023/06/17 05:27:19;;;;;;;14.52;9.68;;;13.60;99.90;;;;;;5059901;28;20251;-81
2023/06/17 05:29:45;;;;;;;12.77;8.65;;;13.70;99.90;;;;;;5077149;28;20249;-80
2023/06/17 05:32:11;;;;;;;14.27;9.57;;;13.80;99.90;;;;;;5078782;28;20174;-81
2023/06/17 05:34:36;;;;;;;16.58;9.52;;;13.80;99.90;;;;;;5078313;28;20193;-81
2023/06/17 05:37:02;;;;;;;12.68;9.65;;;13.90;99.90;;;;;;5062038;28;20189;-81
2023/06/17 05:39:28;;;;;;;11.13;8.95;;;14.00;99.90;;;;;;5063624;28;20564;-82
2023/06/17 05:41:54;;;;;;;16.10;9.52;;;14.10;99.90;;;;;;5063661;28;20657;-81
2023/06/17 05:44:19;;;;;;;14.13;9.98;;;14.10;99.90;;;;;;5081353;28;20284;-81
2023/06/17 05:46:45;;;;;;;12.85;9.43;;;14.20;99.90;;;;;;5082139;28;20170;-81
2023/06/17 05:49:11;;;;;;;14.07;9.38;;;14.20;99.90;;;;;;5063632;28;20166;-81
2023/06/17 05:51:37;;;;;;;11.38;8.60;;;14.30;99.90;;;;;;5063561;28;20259;-81
2023/06/17 05:54:03;;;;;;;13.43;9.32;;;14.50;99.90;;;;;;5063956;28;20212;-81
2023/06/17 05:56:28;;;;;;;13.75;9.13;;;14.50;99.90;;;;;;5081199;28;20185;-81
2023/06/17 05:58:54;;;;;;;14.60;8.60;;;14.60;99.90;;;;;;5082138;28;20174;-81
2023/06/17 06:01:20;;;;;;;12.57;8.82;;;14.80;99.90;;;;;;5081465;28;20201;-81
2023/06/17 06:03:45;;;;;;;10.55;7.70;;;15.00;99.90;;;;;;5061398;28;20231;-81
2023/06/17 06:06:11;;;;;;;11.18;7.82;;;15.10;99.90;;;;;;5077913;28;20198;-81
2023/06/17 06:08:37;;;;;;;11.20;7.80;;;15.20;99.90;;;;;;5078291;28;20167;-80
2023/06/17 06:11:03;;;;;;;12.25;7.80;;;15.40;99.90;;;;;;5078171;28;20174;-80
2023/06/17 06:13:28;;;;;;;13.25;8.48;;;15.50;99.90;;;;;;5060124;28;20177;-82
2023/06/17 06:15:55;;;;;;;10.25;7.60;;;15.60;99.90;;;;;;5059325;28;20202;-83
2023/06/17 06:18:20;;;;;;;12.18;8.20;;;15.60;99.90;;;;;;5059613;28;20238;-82
2023/06/17 06:20:46;;;;;;;12.25;7.82;;;15.70;99.90;;;;;;5059629;28;20193;-83
2023/06/17 06:23:12;;;;;;;14.52;8.50;;;15.90;99.90;;;;;;5059786;28;20184;-83
2023/06/17 06:25:38;;;;;;;12.50;7.65;;;16.00;99.90;;;;;;5077811;28;20204;-82
2023/06/17 06:28:05;;;;;;;10.65;7.88;;;16.00;99.90;;;;;;5078547;28;20228;-83
2023/06/17 06:30:31;;;;;;;12.90;7.82;;;16.20;99.90;;;;;;5060489;28;20166;-83
2023/06/17 06:32:58;;;;;;;11.30;8.05;;;16.30;99.90;;;;;;5060083;28;20664;-83
2023/06/17 06:35:24;;;;;;;10.80;7.72;;;16.40;99.90;;;;;;5060076;28;20291;-83
2023/06/17 06:37:50;;;;;;;12.23;7.93;;;16.50;99.90;;;;;;5060063;28;20654;-82
2023/06/17 06:40:16;;;;;;;13.20;7.82;;;16.60;99.90;;;;;;5060033;28;20182;-82
2023/06/17 06:42:42;;;;;;;15.93;7.63;;;16.80;99.90;;;;;;5078063;28;20757;-83
2023/06/17 06:45:08;;;;;;;11.00;7.65;;;16.90;99.90;;;;;;5059722;28;20217;-82
2023/06/17 06:47:34;;;;;;;11.85;8.63;;;17.00;99.90;;;;;;5057946;28;20173;-83
2023/06/17 06:50:00;;;;;;;11.90;7.47;;;17.10;99.90;;;;;;5077004;28;20211;-83
2023/06/17 06:52:25;;;;;;;11.70;8.35;;;17.20;99.90;;;;;;5077352;28;20215;-83
2023/06/17 06:54:51;;;;;;;10.07;7.60;;;17.30;99.90;;;;;;5076774;28;20193;-82
2023/06/17 06:57:17;;;;;;;9.38;7.82;;;17.50;99.90;;;;;;5059752;28;20640;-83
2023/06/17 06:59:43;;;;;;;16.88;7.53;;;17.60;99.90;;;;;;5058325;28;20247;-83
2023/06/17 07:02:08;;;;;;;12.70;7.40;;;17.70;99.90;;;;;;5058505;28;20269;-83
2023/06/17 07:04:34;;;;;;;9.35;7.20;;;17.80;99.90;;;;;;5058288;28;20255;-82
2023/06/17 07:07:00;;;;;;;11.43;7.40;;;17.90;99.90;;;;;;5076651;28;20205;-83
2023/06/17 07:09:26;;;;;;;10.45;7.32;;;18.00;99.90;;;;;;5058412;28;20173;-83
2023/06/17 07:11:52;;;;;;;10.43;6.45;;;18.10;99.90;;;;;;5075983;28;20542;-82
2023/06/17 07:14:18;;;;;;;10.85;7.47;;;18.20;99.90;;;;;;5058825;28;20205;-81
2023/06/17 07:16:44;;;;;;;12.50;6.85;;;18.30;99.90;;;;;;5076414;28;20164;-82
2023/06/17 07:19:10;;;;;;;9.75;6.22;;;18.50;99.90;;;;;;5058674;28;20658;-81
2023/06/17 07:21:35;;;;;;;11.82;7.63;;;18.60;99.90;;;;;;5058252;28;20272;-82
2023/06/17 07:24:01;;;;;;;11.25;6.60;;;18.80;99.90;;;;;;5077388;28;20608;-81
2023/06/17 07:26:27;;;;;;;9.35;7.00;;;18.90;99.90;;;;;;5059154;28;20583;-81
2023/06/17 07:28:53;;;;;;;10.02;7.25;;;19.00;99.90;;;;;;5076870;28;20526;-81
2023/06/17 07:31:20;;;;;;;11.77;7.18;;;19.10;99.90;;;;;;5059489;28;20641;-79
2023/06/17 07:33:45;;;;;;;11.73;7.38;;;19.20;99.90;;;;;;5076352;28;20174;-80
2023/06/17 07:36:11;;;;;;;10.88;7.45;;;19.30;99.90;;;;;;5075845;28;20205;-80
2023/06/17 07:38:37;;;;;;;11.45;7.00;;;19.40;99.90;;;;;;5057914;28;20266;-79
2023/06/17 07:41:03;;;;;;;12.65;6.90;;;19.50;99.90;;;;;;5077578;28;20178;-80
2023/06/17 07:43:30;;;;;;;11.98;7.18;;;19.60;99.90;;;;;;5079838;28;20198;-80
2023/06/17 07:45:56;;;;;;;12.38;6.85;;;19.70;99.90;;;;;;5080265;28;20206;-81
2023/06/17 07:48:22;;;;;;;9.02;6.88;;;19.80;99.90;;;;;;5080340;28;20170;-81
2023/06/17 07:50:47;;;;;;;12.27;7.32;;;19.90;99.90;;;;;;5060998;28;20178;-82
2023/06/17 07:53:13;;;;;;;10.70;6.75;;;20.00;99.90;;;;;;5062658;28;20173;-81
2023/06/17 07:55:39;;;;;;;11.82;7.45;;;20.10;99.90;;;;;;5063289;28;20194;-81
2023/06/17 07:58:05;;;;;;;13.65;6.93;;;20.20;99.90;;;;;;5078960;28;20181;-81
2023/06/17 08:00:31;;;;;;;10.38;6.70;;;20.30;99.90;;;;;;5058211;28;20563;-80
2023/06/17 08:02:56;;;;;;;10.05;6.32;;;20.40;99.90;;;;;;5058115;28;20173;-81
2023/06/17 08:05:22;;;;;;;10.65;6.55;;;20.50;99.90;;;;;;5058277;28;20225;-81
2023/06/17 08:07:48;;;;;;;11.55;6.82;;;20.70;99.90;;;;;;5076009;28;20184;-81
2023/06/17 08:10:14;;;;;;;11.60;6.47;;;20.80;99.90;;;;;;5076545;28;20524;-80
2023/06/17 08:12:40;;;;;;;8.73;5.95;;;20.80;99.90;;;;;;5076948;28;20177;-81
2023/06/17 08:15:07;;;;;;;11.68;6.03;;;20.90;99.90;;;;;;5058537;28;20202;-81
2023/06/17 08:17:33;;;;;;;8.07;4.53;;;20.80;99.90;;;;;;5058091;28;20242;-82
2023/06/17 08:19:59;;;;;;;6.25;4.40;;;21.00;99.90;;;;;;5058723;28;20593;-80
2023/06/17 08:22:25;;;;;;;9.25;5.15;;;21.10;99.90;;;;;;5057179;28;20197;-80
2023/06/17 08:24:51;;;;;;;8.43;4.65;;;21.20;99.90;;;;;;5057463;28;20716;-79
2023/06/17 08:27:17;;;;;;;7.88;4.85;;;21.20;99.90;;;;;;5058362;28;20185;-80
2023/06/17 08:29:43;;;;;;;6.97;4.38;;;21.40;99.90;;;;;;5057185;28;20181;-76
2023/06/17 08:32:08;;;;;;;8.40;4.72;;;21.50;99.90;;;;;;5074405;28;20170;-78
2023/06/17 08:34:35;;;;;;;8.50;4.55;;;21.60;99.90;;;;;;5074470;28;20197;-78
2023/06/17 08:37:03;;;;;;;9.68;4.90;;;21.70;99.90;;;;;;5061462;28;20174;-78
2023/06/17 08:39:33;;;;;;;6.15;4.57;;;21.80;99.90;;;;;;5054398;28;20294;-78
2023/06/17 08:41:59;;;;;;;8.32;4.95;;;21.80;99.90;;;;;;5036047;28;20182;-78
2023/06/17 08:44:32;;;;;;;5.82;4.68;;;21.90;99.90;;;;;;5053823;28;20202;-78
2023/06/17 08:47:03;;;;;;;8.23;4.40;;;22.00;99.90;;;;;;5036500;28;20178;-78
2023/06/17 08:49:30;;;;;;;6.60;4.43;;;22.10;99.90;;;;;;5054445;28;20224;-78
2023/06/17 08:52:00;;;;;;;8.52;4.70;;;22.20;99.90;;;;;;5036259;28;20181;-78
2023/06/17 08:54:27;;;;;;;9.05;5.18;;;22.40;99.90;;;;;;5053935;28;20197;-78
2023/06/17 08:56:53;;;;;;;7.15;5.03;;;22.50;99.90;;;;;;5036449;28;20196;-78
2023/06/17 08:59:20;;;;;;;7.55;5.20;;;22.60;99.90;;;;;;5054387;28;20613;-78
2023/06/17 09:01:47;;;;;;;8.07;4.78;;;22.70;99.90;;;;;;5053870;28;20269;-77
2023/06/17 09:04:14;;;;;;;6.63;4.55;;;22.80;99.90;;;;;;5035731;28;20202;-78
2023/06/17 09:06:40;;;;;;;7.53;4.80;;;23.00;99.90;;;;;;5072301;28;20188;-77
2023/06/17 09:09:05;;;;;;;6.65;4.57;;;23.00;99.90;;;;;;5073615;28;20174;-78
2023/06/17 09:11:32;;;;;;;11.07;4.60;;;23.20;99.90;;;;;;5073226;28;20630;-77
2023/06/17 09:13:59;;;;;;;7.03;4.40;;;23.40;99.90;;;;;;5055859;28;20177;-78
2023/06/17 09:16:30;;;;;;;8.32;4.63;;;23.50;99.90;;;;;;5055808;28;20191;-78
2023/06/17 09:19:01;;;;;;;9.38;4.88;;;23.60;99.90;;;;;;5074045;28;20653;-78
2023/06/17 09:21:27;;;;;;;7.25;5.07;;;23.70;99.90;;;;;;5073966;28;20689;-78
2023/06/17 09:24:04;;;;;;;8.98;4.57;;;23.90;99.90;;;;;;5056223;28;20201;-78
2023/06/17 09:26:32;;;;;;;10.63;4.93;;;24.10;99.90;;;;;;5074000;28;20188;-78
2023/06/17 09:29:05;;;;;;;7.18;5.03;;;24.30;99.90;;;;;;5074230;28;20174;-78
2023/06/17 09:31:33;;;;;;;7.97;4.88;;;24.30;99.90;;;;;;5056153;28;20268;-78
2023/06/17 09:34:03;;;;;;;8.05;4.13;;;24.30;99.90;;;;;;5056954;28;20249;-78
2023/06/17 09:36:29;;;;;;;5.85;4.28;;;24.30;99.90;;;;;;5056668;28;20212;-78
2023/06/17 09:38:55;;;;;;;5.85;4.32;;;24.30;99.90;;;;;;5055937;28;20587;-78
2023/06/17 09:41:23;;;;;;;7.72;4.97;;;24.40;99.90;;;;;;5055723;28;20178;-77
2023/06/17 09:43:52;;;;;;;6.47;4.18;;;24.50;99.90;;;;;;5073441;28;20280;-77
2023/06/17 09:46:29;;;;;;;8.15;4.50;;;24.60;99.90;;;;;;5073331;28;20681;-77
2023/06/17 09:48:59;;;;;;;7.22;4.40;;;24.70;99.90;;;;;;5073403;28;20154;-77
2023/06/17 09:51:25;;;;;;;8.10;4.43;;;24.70;99.90;;;;;;5055472;28;20269;-77
2023/06/17 09:53:54;;;;;;;7.95;4.65;;;24.80;99.90;;;;;;5055379;28;20174;-77
2023/06/17 09:56:20;;;;;;;8.60;5.05;;;24.90;99.90;;;;;;5056214;28;20292;-78
2023/06/17 09:58:47;;;;;;;7.20;5.05;;;25.10;99.90;;;;;;5074491;28;20181;-78
2023/06/17 10:01:13;;;;;;;8.32;4.78;;;25.00;99.90;;;;;;5074009;28;20525;-78
2023/06/17 10:03:39;;;;;;;7.97;4.65;;;25.00;99.90;;;;;;5056324;28;20202;-79
2023/06/17 10:06:13;;;;;;;8.63;5.47;;;25.00;99.90;;;;;;5056118;28;20229;-79
2023/06/17 10:08:43;;;;;;;6.47;5.07;;;25.00;99.90;;;;;;5057682;28;20196;-79
2023/06/17 10:11:13;;;;;;;9.02;5.57;;;25.10;99.90;;;;;;5057209;28;20185;-79
2023/06/17 10:13:40;;;;;;;10.93;5.72;;;25.30;99.90;;;;;;5055984;28;20253;-79
2023/06/17 10:16:12;;;;;;;11.52;5.60;;;25.30;99.90;;;;;;5057175;28;20208;-79
2023/06/17 10:18:41;;;;;;;7.68;4.97;;;25.30;99.90;;;;;;5057309;28;20170;-79
2023/06/17 10:21:10;;;;;;;7.07;4.45;;;25.50;99.90;;;;;;5074544;28;20190;-79
2023/06/17 10:23:37;;;;;;;5.68;4.85;;;25.60;99.90;;;;;;5057660;28;20740;-79
2023/06/17 10:26:07;;;;;;;5.10;4.10;;;25.60;99.90;;;;;;5078961;28;20197;-80
2023/06/17 10:29:06;;;;;;;5.75;4.20;;;25.60;99.90;;;;;;5078494;28;20173;-79
2023/06/17 10:31:40;;;;;;;8.52;4.53;;;25.70;99.90;;;;;;5056338;28;20193;-80
2023/06/17 10:34:25;;;;;;;7.18;4.22;;;25.60;99.90;;;;;;5061921;28;20197;-80
2023/06/17 10:36:57;;;;;;;6.55;4.07;;;25.60;99.90;;;;;;5060625;28;20209;-79
2023/06/17 10:39:23;;;;;;;5.72;4.05;;;25.60;99.90;;;;;;5077912;28;20154;-79
2023/06/17 10:41:59;;;;;;;9.32;5.10;;;25.60;99.90;;;;;;5059482;28;20178;-77
2023/06/17 10:44:40;;;;;;;6.03;4.30;;;25.80;99.90;;;;;;5077680;28;20201;-79
2023/06/17 10:47:18;;;;;;;7.05;4.63;;;26.00;99.90;;;;;;5081179;28;20158;-79
2023/06/17 10:49:45;;;;;;;8.20;4.05;;;26.00;99.90;;;;;;5080099;28;20644;-78
2023/06/17 10:52:15;;;;;;;5.00;3.60;;;26.00;99.90;;;;;;5061051;28;20672;-78
2023/06/17 10:54:59;;;;;;;6.13;3.60;;;26.00;99.90;;;;;;5078984;28;20233;-79
2023/06/17 10:57:32;;;;;;;7.97;4.07;;;26.30;99.90;;;;;;5060124;28;20185;-80
2023/06/17 11:00:13;;;;;;;4.90;3.58;;;26.30;99.90;;;;;;5060880;28;20182;-79
2023/06/17 11:02:40;;;;;;;5.85;4.00;;;26.30;99.90;;;;;;5079098;28;20158;-79
2023/06/17 11:05:07;;;;;;;11.18;3.58;;;26.10;99.90;;;;;;5061666;28;20362;-79
2023/06/17 11:07:32;;;;;;;7.57;4.32;;;26.10;99.90;;;;;;5060816;28;20182;-79
2023/06/17 11:09:59;;;;;;;7.25;4.63;;;26.20;99.90;;;;;;5061721;28;20174;-81
2023/06/17 11:12:24;;;;;;;6.53;4.45;;;26.20;99.90;;;;;;5060093;28;20636;-81
2023/06/17 11:14:50;;;;;;;7.20;4.07;;;26.30;99.90;;;;;;5079197;28;20229;-80
2023/06/17 11:17:16;;;;;;;5.55;3.40;;;26.40;99.90;;;;;;5061065;28;20276;-79
2023/06/17 11:19:47;;;;;;;5.75;4.05;;;26.30;99.90;;;;;;5061044;28;20181;-80
2023/06/17 11:22:13;;;;;;;5.47;4.00;;;26.40;99.90;;;;;;5079403;28;20260;-79
2023/06/17 11:24:39;;;;;;;4.88;3.58;;;26.30;99.90;;;;;;5060675;28;20220;-82
2023/06/17 11:27:05;;;;;;;7.07;4.15;;;26.40;99.90;;;;;;5063142;28;20178;-79
2023/06/17 11:29:31;;;;;;;6.03;3.90;;;26.60;99.90;;;;;;5081067;28;20154;-79
2023/06/17 11:32:01;;;;;;;6.57;4.43;;;26.80;99.90;;;;;;5078863;28;20162;-80
2023/06/17 11:34:36;;;;;;;6.95;4.25;;;26.80;99.90;;;;;;5060220;28;20576;-80
2023/06/17 11:37:06;;;;;;;5.90;4.25;;;27.00;99.90;;;;;;5078025;28;20251;-79
2023/06/17 11:39:32;;;;;;;6.00;3.95;;;27.10;99.90;;;;;;5060191;28;20174;-79
2023/06/17 11:42:01;;;;;;;5.30;4.18;;;27.10;99.90;;;;;;5077948;28;20265;-79
2023/06/17 11:44:31;;;;;;;6.45;3.92;;;27.20;99.90;;;;;;5059316;28;20209;-79
2023/06/17 11:47:06;;;;;;;5.70;4.15;;;27.20;99.90;;;;;;5077876;28;20178;-77
2023/06/17 11:49:32;;;;;;;7.18;4.68;;;27.20;99.90;;;;;;5075402;28;20157;-76
2023/06/17 11:52:05;;;;;;;5.57;4.07;;;27.10;99.90;;;;;;5074780;28;20248;-77
2023/06/17 11:54:31;;;;;;;5.90;4.07;;;27.00;99.90;;;;;;5074982;28;20190;-79
2023/06/17 11:56:57;;;;;;;6.60;4.28;;;27.10;99.90;;;;;;5076211;28;20185;-78
2023/06/17 11:59:23;;;;;;;4.95;3.90;;;27.40;99.90;;;;;;5076802;28;20540;-79
2023/06/17 12:01:49;;;;;;;6.65;3.80;;;27.50;99.90;;;;;;5058226;28;20185;-79
2023/06/17 12:04:15;;;;;;;4.68;3.75;;;27.60;99.90;;;;;;5076592;28;20608;-79
2023/06/17 12:06:42;;;;;;;7.97;4.22;;;27.60;99.90;;;;;;5058527;28;20244;-79
2023/06/17 12:09:08;;;;;;;6.35;4.43;;;27.90;99.90;;;;;;5076351;28;20170;-79
2023/06/17 12:11:38;;;;;;;6.50;4.00;;;28.00;99.90;;;;;;5074954;28;20146;-77
2023/06/17 12:14:11;;;;;;;5.80;4.35;;;28.10;99.90;;;;;;5074824;28;20245;-78
2023/06/17 12:16:39;;;;;;;5.00;4.15;;;28.30;99.90;;;;;;5059034;28;20196;-78
2023/06/17 12:19:12;;;;;;;8.10;4.97;;;28.40;99.90;;;;;;5076029;28;20182;-79
2023/06/17 12:21:39;;;;;;;4.88;3.90;;;28.50;99.90;;;;;;5059041;28;20221;-80
2023/06/17 12:24:05;;;;;;;6.72;5.03;;;28.20;99.90;;;;;;5078051;28;20242;-80
2023/06/17 12:26:33;;;;;;;5.63;4.38;;;28.00;99.90;;;;;;5077871;28;20178;-80
2023/06/17 12:28:59;;;;;;;6.40;4.30;;;28.10;99.90;;;;;;5058516;28;20176;-80
2023/06/17 12:31:25;;;;;;;8.63;4.20;;;28.20;99.90;;;;;;5076151;28;20252;-80
2023/06/17 12:33:51;;;;;;;5.25;4.30;;;28.30;99.90;;;;;;5058122;28;20203;-80
2023/06/17 12:36:17;;;;;;;8.80;4.78;;;28.40;99.90;;;;;;5075523;28;20292;-79
2023/06/17 12:38:44;;;;;;;6.15;4.32;;;28.50;99.90;;;;;;5075317;28;20185;-79
2023/06/17 12:41:11;;;;;;;8.00;4.13;;;28.70;99.90;;;;;;5074755;28;20177;-78
2023/06/17 12:43:38;;;;;;;5.15;4.00;;;28.80;99.90;;;;;;5056791;28;20665;-78